Time;durP1;ratioP1;P1;durP2;ratioP2;P2;SDS_P1;SDS_P2;PMS_P1;PMS_P2;Temp;Humidity;BMP_temperature;BMP_pressure;BME280_temperature;BME280_humidity;BME280_pressure;Samples;Min_cycle;Max_cycle;Signal;HPM_P1;HPM_P2
2023/09/07 00:01:18;;;;;;;4.78;2.63;;;18.90;99.90;;;;;;5071427;28;20052;-79
2023/09/07 00:03:44;;;;;;;3.70;3.15;;;18.90;99.90;;;;;;5073505;28;20528;-79
2023/09/07 00:06:09;;;;;;;3.75;3.15;;;18.80;99.90;;;;;;5079519;28;20039;-79
2023/09/07 00:08:35;;;;;;;4.72;3.10;;;18.70;99.90;;;;;;5090712;28;20412;-80
2023/09/07 00:11:04;;;;;;;3.25;2.80;;;18.70;99.90;;;;;;5087531;28;20134;-80
2023/09/07 00:13:30;;;;;;;4.47;3.10;;;18.70;99.90;;;;;;5076927;28;20485;-80
2023/09/07 00:16:03;;;;;;;5.03;2.90;;;18.60;99.90;;;;;;5085994;28;20040;-80
2023/09/07 00:18:29;;;;;;;3.47;2.83;;;18.60;99.90;;;;;;5083181;28;20047;-79
2023/09/07 00:20:54;;;;;;;3.95;2.72;;;18.50;99.90;;;;;;5076300;28;20437;-80
2023/09/07 00:23:20;;;;;;;4.80;2.85;;;18.50;99.90;;;;;;5077284;28;20040;-80
2023/09/07 00:25:46;;;;;;;4.13;2.90;;;18.50;99.90;;;;;;5081734;28;20409;-79
2023/09/07 00:28:12;;;;;;;2.92;2.67;;;18.40;99.90;;;;;;5082291;28;20040;-79
2023/09/07 00:30:38;;;;;;;6.00;3.20;;;18.30;99.90;;;;;;5077617;28;20048;-80
2023/09/07 00:33:03;;;;;;;4.88;3.00;;;18.30;99.90;;;;;;5071894;28;20048;-79
2023/09/07 00:35:29;;;;;;;3.55;2.78;;;18.30;99.90;;;;;;5080188;28;20044;-80
2023/09/07 00:37:55;;;;;;;3.40;3.10;;;18.20;99.90;;;;;;5068787;28;20114;-79
2023/09/07 00:40:21;;;;;;;3.33;3.03;;;18.20;99.90;;;;;;5076156;28;20052;-80
2023/09/07 00:42:47;;;;;;;3.60;3.30;;;18.10;99.90;;;;;;5072590;28;20039;-80
2023/09/07 00:45:13;;;;;;;5.28;2.95;;;18.10;99.90;;;;;;5078717;28;20049;-80
2023/09/07 00:47:38;;;;;;;6.18;3.70;;;18.10;99.90;;;;;;5068906;28;20076;-80
2023/09/07 00:50:07;;;;;;;7.93;3.17;;;18.00;99.90;;;;;;5074379;28;20055;-80
2023/09/07 00:52:34;;;;;;;4.63;3.05;;;18.00;99.90;;;;;;5086352;28;20090;-81
2023/09/07 00:55:02;;;;;;;3.10;2.80;;;18.00;99.90;;;;;;5079548;28;20470;-80
2023/09/07 00:57:27;;;;;;;4.70;3.00;;;17.90;99.90;;;;;;5069363;28;20623;-80
2023/09/07 00:59:54;;;;;;;6.05;3.20;;;17.90;99.90;;;;;;5081876;28;20044;-80
2023/09/07 01:02:19;;;;;;;6.28;3.00;;;17.90;99.90;;;;;;5076636;28;20036;-80
2023/09/07 01:04:45;;;;;;;4.40;2.97;;;17.90;99.90;;;;;;5067539;28;20110;-80
2023/09/07 01:07:20;;;;;;;4.75;3.50;;;17.80;99.90;;;;;;5068024;28;20694;-80
2023/09/07 01:09:49;;;;;;;3.55;3.25;;;17.80;99.90;;;;;;5072353;28;20066;-80
2023/09/07 01:12:17;;;;;;;5.38;3.38;;;17.80;99.90;;;;;;5069805;28;20044;-80
2023/09/07 01:14:43;;;;;;;4.68;3.10;;;17.70;99.90;;;;;;5071594;28;20830;-80
2023/09/07 01:17:10;;;;;;;5.40;3.08;;;17.80;99.90;;;;;;5080918;28;20036;-80
2023/09/07 01:19:36;;;;;;;5.80;3.20;;;17.80;99.90;;;;;;5080340;28;20048;-80
2023/09/07 01:22:03;;;;;;;4.90;3.00;;;17.70;99.90;;;;;;5068634;28;20056;-80
2023/09/07 01:24:30;;;;;;;3.42;3.13;;;17.70;99.90;;;;;;5073734;28;20028;-80
2023/09/07 01:26:57;;;;;;;6.13;3.42;;;17.70;99.90;;;;;;5070306;28;20616;-80
2023/09/07 01:29:23;;;;;;;4.25;3.20;;;17.70;99.90;;;;;;5067533;28;20134;-80
2023/09/07 01:31:49;;;;;;;3.75;3.40;;;17.70;99.90;;;;;;5068993;28;20502;-79
2023/09/07 01:34:14;;;;;;;3.63;3.33;;;17.70;99.90;;;;;;5075753;28;20130;-80
2023/09/07 01:36:40;;;;;;;6.68;3.45;;;17.70;99.90;;;;;;5070155;28;20060;-80
2023/09/07 01:39:08;;;;;;;3.70;3.40;;;17.70;99.90;;;;;;5067988;28;20422;-80
2023/09/07 01:41:34;;;;;;;4.32;3.47;;;17.80;99.90;;;;;;5067875;28;20040;-80
2023/09/07 01:44:00;;;;;;;4.88;3.55;;;17.70;99.90;;;;;;5068317;28;20036;-80
2023/09/07 01:46:26;;;;;;;3.65;3.25;;;17.70;99.90;;;;;;5068125;28;20035;-80
2023/09/07 01:48:51;;;;;;;4.57;3.60;;;17.80;99.90;;;;;;5067157;28;20523;-80
2023/09/07 01:51:17;;;;;;;3.83;3.50;;;17.70;99.90;;;;;;5075270;28;20047;-80
2023/09/07 01:53:42;;;;;;;4.40;3.35;;;17.70;99.90;;;;;;5069676;28;20044;-80
2023/09/07 01:56:08;;;;;;;5.55;3.95;;;17.80;99.90;;;;;;5087294;28;20044;-80
2023/09/07 01:58:34;;;;;;;3.60;3.30;;;17.70;99.90;;;;;;5088685;28;20482;-80
2023/09/07 02:01:00;;;;;;;5.00;3.90;;;17.70;99.90;;;;;;5079645;28;20056;-80
2023/09/07 02:03:26;;;;;;;5.10;3.55;;;17.70;99.90;;;;;;5073590;28;20036;-80
2023/09/07 02:05:53;;;;;;;3.72;3.40;;;17.60;99.90;;;;;;5082243;28;20093;-80
2023/09/07 02:08:18;;;;;;;4.10;3.50;;;17.60;99.90;;;;;;5087422;28;20520;-80
2023/09/07 02:10:44;;;;;;;5.20;3.80;;;17.60;99.90;;;;;;5080360;28;20045;-80
2023/09/07 02:13:10;;;;;;;4.10;3.47;;;17.50;99.90;;;;;;5068315;28;20445;-80
2023/09/07 02:15:39;;;;;;;6.05;3.83;;;17.50;99.90;;;;;;5078523;28;20036;-80
2023/09/07 02:18:05;;;;;;;3.40;3.10;;;17.50;99.90;;;;;;5069903;28;20124;-80
2023/09/07 02:20:32;;;;;;;3.75;3.28;;;17.40;99.90;;;;;;5068005;28;20409;-79
2023/09/07 02:22:57;;;;;;;4.78;3.45;;;17.40;99.90;;;;;;5075496;28;20375;-80
2023/09/07 02:25:23;;;;;;;3.75;3.45;;;17.30;99.90;;;;;;5083975;28;20055;-80
2023/09/07 02:27:49;;;;;;;4.20;3.60;;;17.30;99.90;;;;;;5067048;28;20041;-80
2023/09/07 02:30:14;;;;;;;5.93;3.70;;;17.20;99.90;;;;;;5068854;28;20052;-80
2023/09/07 02:32:42;;;;;;;4.22;3.83;;;17.20;99.90;;;;;;5066286;28;20124;-80
2023/09/07 02:35:08;;;;;;;4.85;4.00;;;17.20;99.90;;;;;;5074581;28;20041;-80
2023/09/07 02:37:35;;;;;;;5.10;3.80;;;17.10;99.90;;;;;;5067054;28;20045;-80
2023/09/07 02:40:00;;;;;;;6.15;3.95;;;17.10;99.90;;;;;;5066495;28;20060;-80
2023/09/07 02:42:26;;;;;;;4.75;3.85;;;17.10;99.90;;;;;;5086691;28;20044;-80
2023/09/07 02:44:51;;;;;;;4.13;3.75;;;17.10;99.90;;;;;;5083980;28;20054;-80
2023/09/07 02:47:17;;;;;;;4.53;3.58;;;17.10;99.90;;;;;;5067805;28;20044;-80
2023/09/07 02:49:42;;;;;;;6.78;4.18;;;17.10;99.90;;;;;;5065322;28;20102;-80
2023/09/07 02:52:08;;;;;;;4.95;4.10;;;17.00;99.90;;;;;;5086070;28;20093;-80
2023/09/07 02:54:34;;;;;;;4.93;4.43;;;17.00;99.90;;;;;;5084388;28;20051;-80
2023/09/07 02:56:59;;;;;;;5.22;4.20;;;17.00;99.90;;;;;;5077102;28;20058;-80
2023/09/07 02:59:25;;;;;;;4.53;4.13;;;16.90;99.90;;;;;;5074342;28;20419;-81
2023/09/07 03:01:51;;;;;;;4.30;3.90;;;16.90;99.90;;;;;;5085879;28;20044;-80
2023/09/07 03:04:16;;;;;;;4.50;4.10;;;16.90;99.90;;;;;;5077950;28;20376;-80
2023/09/07 03:06:42;;;;;;;5.13;4.15;;;16.90;99.90;;;;;;5070712;28;20388;-80
2023/09/07 03:09:08;;;;;;;5.30;4.13;;;16.90;99.90;;;;;;5067438;28;20130;-80
2023/09/07 03:11:35;;;;;;;4.70;3.58;;;16.80;99.90;;;;;;5065770;28;20033;-80
2023/09/07 03:14:00;;;;;;;4.88;4.32;;;16.80;99.90;;;;;;5077020;28;20055;-79
2023/09/07 03:16:26;;;;;;;4.85;4.13;;;16.90;99.90;;;;;;5082210;28;20433;-80
2023/09/07 03:18:51;;;;;;;4.93;4.40;;;16.80;99.90;;;;;;5068000;28;20040;-80
2023/09/07 03:21:17;;;;;;;7.45;4.85;;;16.80;99.90;;;;;;5066972;28;20079;-80
2023/09/07 03:23:44;;;;;;;5.20;4.70;;;16.80;99.90;;;;;;5067153;28;20091;-80
2023/09/07 03:26:10;;;;;;;5.10;4.60;;;16.80;99.90;;;;;;5069694;28;20055;-80
2023/09/07 03:28:36;;;;;;;6.68;4.55;;;16.70;99.90;;;;;;5068083;28;20048;-80
2023/09/07 03:31:02;;;;;;;6.20;4.85;;;16.80;99.90;;;;;;5071276;28;20079;-79
2023/09/07 03:33:28;;;;;;;5.13;4.40;;;16.80;99.90;;;;;;5074492;28;21655;-80
2023/09/07 03:35:58;;;;;;;5.15;4.65;;;16.80;99.90;;;;;;5080003;28;20044;-80
2023/09/07 03:38:24;;;;;;;5.10;4.60;;;16.70;99.90;;;;;;5065885;28;20051;-79
2023/09/07 03:40:50;;;;;;;5.38;4.85;;;16.80;99.90;;;;;;5066321;28;20056;-80
2023/09/07 03:43:15;;;;;;;5.20;4.70;;;16.90;99.90;;;;;;5083937;28;20044;-80
2023/09/07 03:45:41;;;;;;;6.35;4.80;;;17.00;99.90;;;;;;5079031;28;20082;-80
2023/09/07 03:48:07;;;;;;;5.10;4.60;;;16.90;99.90;;;;;;5070242;28;20156;-79
2023/09/07 03:50:33;;;;;;;5.82;5.30;;;16.90;99.90;;;;;;5070225;28;20589;-80
2023/09/07 03:52:59;;;;;;;6.40;4.68;;;16.90;99.90;;;;;;5070963;28;20095;-80
2023/09/07 03:55:24;;;;;;;6.63;5.72;;;16.80;99.90;;;;;;5070281;28;20035;-80
2023/09/07 03:57:50;;;;;;;5.60;4.93;;;16.80;99.90;;;;;;5070246;28;20418;-80
2023/09/07 04:00:16;;;;;;;7.40;5.35;;;16.80;99.90;;;;;;5074784;28;20515;-80
2023/09/07 04:02:41;;;;;;;6.35;5.30;;;16.70;99.90;;;;;;5090929;28;20072;-80
2023/09/07 04:05:07;;;;;;;6.72;5.30;;;16.70;99.90;;;;;;5076147;28;20127;-80
2023/09/07 04:07:32;;;;;;;5.88;5.22;;;16.70;99.90;;;;;;5079218;28;20042;-79
2023/09/07 04:09:58;;;;;;;7.53;4.95;;;16.70;99.90;;;;;;5078976;28;20059;-80
2023/09/07 04:12:24;;;;;;;7.40;5.20;;;16.70;99.90;;;;;;5074427;28;20071;-79
2023/09/07 04:14:50;;;;;;;5.85;5.25;;;16.60;99.90;;;;;;5072976;28;20076;-79
2023/09/07 04:17:16;;;;;;;6.07;5.32;;;16.60;99.90;;;;;;5068309;28;20075;-80
2023/09/07 04:19:43;;;;;;;10.43;5.40;;;16.60;99.90;;;;;;5071510;28;20047;-80
2023/09/07 04:22:08;;;;;;;8.80;6.18;;;16.50;99.90;;;;;;5070050;28;20131;-80
2023/09/07 04:24:34;;;;;;;6.32;5.60;;;16.50;99.90;;;;;;5069481;28;20155;-79
2023/09/07 04:27:01;;;;;;;7.25;5.40;;;16.50;99.90;;;;;;5067717;28;20063;-80
2023/09/07 04:29:27;;;;;;;9.02;5.78;;;16.60;99.90;;;;;;5068873;28;20056;-80
2023/09/07 04:31:52;;;;;;;6.40;5.70;;;16.50;99.90;;;;;;5081436;28;20040;-79
2023/09/07 04:34:18;;;;;;;7.85;5.63;;;16.50;99.90;;;;;;5085581;28;20922;-80
2023/09/07 04:36:43;;;;;;;5.80;5.25;;;16.50;99.90;;;;;;5070035;28;20066;-80
2023/09/07 04:39:09;;;;;;;6.13;5.50;;;16.50;99.90;;;;;;5083123;28;21050;-80
2023/09/07 04:41:35;;;;;;;6.60;5.93;;;16.50;99.90;;;;;;5075742;28;20394;-80
2023/09/07 04:44:00;;;;;;;6.20;5.40;;;16.50;99.90;;;;;;5070184;28;20101;-80
2023/09/07 04:46:26;;;;;;;6.38;5.63;;;16.50;99.90;;;;;;5069224;28;20059;-79
2023/09/07 04:48:51;;;;;;;6.25;5.70;;;16.50;99.90;;;;;;5074997;28;20059;-79
2023/09/07 04:51:17;;;;;;;6.40;5.57;;;16.50;99.90;;;;;;5077401;28;20135;-80
2023/09/07 04:53:42;;;;;;;6.47;5.82;;;16.50;99.90;;;;;;5076951;28;20434;-80
2023/09/07 04:56:08;;;;;;;6.78;5.80;;;16.50;99.90;;;;;;5068894;28;20410;-79
2023/09/07 04:58:35;;;;;;;6.63;5.95;;;16.50;99.90;;;;;;5068422;28;20146;-80
2023/09/07 05:01:04;;;;;;;6.95;6.28;;;16.50;99.90;;;;;;5080585;28;20098;-81
2023/09/07 05:03:30;;;;;;;6.78;6.03;;;16.50;99.90;;;;;;5074237;28;20066;-81
2023/09/07 05:05:56;;;;;;;8.75;6.80;;;16.50;99.90;;;;;;5071812;28;20032;-80
2023/09/07 05:08:22;;;;;;;6.57;5.93;;;16.50;99.90;;;;;;5068488;28;20063;-80
2023/09/07 05:10:48;;;;;;;9.15;6.43;;;16.40;99.90;;;;;;5079448;28;20052;-79
2023/09/07 05:13:14;;;;;;;7.00;6.30;;;16.50;99.90;;;;;;5068117;28;20047;-80
2023/09/07 05:15:49;;;;;;;7.95;6.38;;;16.50;99.90;;;;;;5076273;28;20055;-80
2023/09/07 05:18:15;;;;;;;7.47;6.45;;;16.50;99.90;;;;;;5067308;28;20061;-80
2023/09/07 05:20:41;;;;;;;7.38;6.40;;;16.60;99.90;;;;;;5069273;28;20041;-80
2023/09/07 05:23:06;;;;;;;7.20;6.10;;;16.60;99.90;;;;;;5069168;28;20047;-80
2023/09/07 05:25:32;;;;;;;9.68;5.97;;;16.70;99.90;;;;;;5071558;28;20043;-79
2023/09/07 05:27:57;;;;;;;7.30;6.07;;;16.70;99.90;;;;;;5083870;28;20048;-79
2023/09/07 05:30:23;;;;;;;6.88;6.00;;;16.70;99.90;;;;;;5074290;28;20056;-80
2023/09/07 05:32:49;;;;;;;11.65;6.35;;;16.80;99.90;;;;;;5079725;28;20098;-80
2023/09/07 05:35:16;;;;;;;6.90;6.20;;;16.80;99.90;;;;;;5075644;28;20048;-80
2023/09/07 05:37:42;;;;;;;8.75;6.65;;;16.90;99.90;;;;;;5068554;28;20048;-79
2023/09/07 05:40:08;;;;;;;7.55;6.65;;;16.90;99.90;;;;;;5068063;28;20047;-79
2023/09/07 05:42:33;;;;;;;6.93;6.10;;;16.90;99.90;;;;;;5068314;28;20044;-79
2023/09/07 05:44:59;;;;;;;7.82;6.60;;;16.90;99.90;;;;;;5068650;28;20174;-80
2023/09/07 05:47:26;;;;;;;6.93;6.30;;;16.90;99.90;;;;;;5068645;28;20105;-80
2023/09/07 05:49:51;;;;;;;7.47;6.57;;;17.00;99.90;;;;;;5071687;28;20953;-80
2023/09/07 05:52:17;;;;;;;7.00;6.35;;;17.10;99.90;;;;;;5082287;28;20037;-79
2023/09/07 05:54:43;;;;;;;7.03;6.32;;;17.10;99.90;;;;;;5067071;28;20497;-79
2023/09/07 05:57:08;;;;;;;7.70;6.70;;;17.20;99.90;;;;;;5067416;28;20044;-79
2023/09/07 05:59:34;;;;;;;6.93;6.22;;;17.20;99.90;;;;;;5068536;28;20044;-79
2023/09/07 06:02:00;;;;;;;9.02;6.35;;;17.30;99.90;;;;;;5068206;28;20119;-79
2023/09/07 06:04:25;;;;;;;9.55;7.15;;;17.30;99.90;;;;;;5072545;28;20040;-79
2023/09/07 06:06:51;;;;;;;7.03;6.43;;;17.40;99.90;;;;;;5084037;28;20044;-80
2023/09/07 06:09:17;;;;;;;8.43;6.57;;;17.50;99.90;;;;;;5067250;28;20045;-79
2023/09/07 06:11:43;;;;;;;8.13;6.93;;;17.60;99.90;;;;;;5084054;28;20051;-80
2023/09/07 06:14:08;;;;;;;9.23;5.93;;;17.70;99.90;;;;;;5087712;28;20047;-80
2023/09/07 06:16:34;;;;;;;7.18;6.50;;;17.70;99.90;;;;;;5088438;28;20036;-80
2023/09/07 06:19:00;;;;;;;7.78;6.25;;;17.90;99.90;;;;;;5086346;28;20048;-80
2023/09/07 06:21:26;;;;;;;7.28;6.40;;;18.00;99.90;;;;;;5067409;28;20048;-80
2023/09/07 06:23:51;;;;;;;6.97;6.38;;;18.10;99.90;;;;;;5068003;28;20044;-78
2023/09/07 06:26:17;;;;;;;8.60;6.43;;;18.20;99.90;;;;;;5079453;28;20036;-79
2023/09/07 06:28:44;;;;;;;13.38;7.03;;;18.30;99.90;;;;;;5088164;28;20474;-80
2023/09/07 06:31:09;;;;;;;10.25;6.45;;;18.40;99.90;;;;;;5088320;28;20055;-79
2023/09/07 06:33:35;;;;;;;7.35;6.40;;;18.50;99.90;;;;;;5086800;28;20044;-80
2023/09/07 06:36:02;;;;;;;8.38;6.50;;;18.60;99.90;;;;;;5088722;28;20165;-81
2023/09/07 06:38:28;;;;;;;11.23;6.15;;;18.70;99.90;;;;;;5076815;28;20051;-80
2023/09/07 06:40:53;;;;;;;8.50;6.28;;;18.80;99.90;;;;;;5067846;28;20044;-79
2023/09/07 06:43:19;;;;;;;8.98;6.30;;;18.90;99.90;;;;;;5086670;28;20044;-78
2023/09/07 06:45:44;;;;;;;7.07;6.38;;;18.90;99.90;;;;;;5088143;28;20040;-80
2023/09/07 06:48:10;;;;;;;7.40;6.63;;;19.00;99.90;;;;;;5087695;28;20044;-79
2023/09/07 06:50:36;;;;;;;7.10;6.20;;;19.10;99.90;;;;;;5088065;28;20091;-80
2023/09/07 06:53:02;;;;;;;7.53;6.20;;;19.20;99.90;;;;;;5087754;28;20072;-79
2023/09/07 06:55:28;;;;;;;8.23;6.63;;;19.30;99.90;;;;;;5088355;28;20048;-80
2023/09/07 06:57:55;;;;;;;6.28;5.50;;;19.40;99.90;;;;;;5069031;28;20139;-80
2023/09/07 07:00:21;;;;;;;7.68;5.63;;;19.60;99.90;;;;;;5067739;28;20053;-80
2023/09/07 07:02:47;;;;;;;9.40;6.10;;;19.70;99.90;;;;;;5067710;28;20036;-80
2023/09/07 07:05:12;;;;;;;6.55;5.65;;;19.80;99.90;;;;;;5066726;28;20101;-80
2023/09/07 07:07:39;;;;;;;7.50;5.90;;;19.90;99.90;;;;;;5067605;28;20045;-80
2023/09/07 07:10:06;;;;;;;6.50;5.90;;;20.00;99.90;;;;;;5067166;28;20091;-79
2023/09/07 07:12:34;;;;;;;6.35;5.70;;;20.10;99.90;;;;;;5067849;28;20466;-77
2023/09/07 07:15:01;;;;;;;6.00;5.38;;;20.20;99.90;;;;;;5067608;28;20040;-78
2023/09/07 07:17:26;;;;;;;6.82;5.78;;;20.30;99.90;;;;;;5067276;28;20054;-81
2023/09/07 07:19:52;;;;;;;7.88;5.30;;;20.40;99.90;;;;;;5067715;28;20041;-81
2023/09/07 07:22:17;;;;;;;5.97;5.20;;;20.40;99.90;;;;;;5071041;28;20433;-81
2023/09/07 07:24:43;;;;;;;6.55;5.65;;;20.60;99.90;;;;;;5068556;28;20445;-80
2023/09/07 07:27:10;;;;;;;5.72;5.15;;;20.70;99.90;;;;;;5068287;28;20141;-80
2023/09/07 07:29:36;;;;;;;8.15;5.18;;;20.80;99.90;;;;;;5081918;28;20093;-81
2023/09/07 07:32:03;;;;;;;5.65;5.13;;;20.80;99.90;;;;;;5089146;28;20044;-81
2023/09/07 07:34:29;;;;;;;7.68;5.07;;;21.00;99.90;;;;;;5089167;28;20093;-80
2023/09/07 07:36:54;;;;;;;5.38;4.88;;;21.20;99.90;;;;;;5089982;28;20044;-80
2023/09/07 07:39:20;;;;;;;7.18;5.40;;;21.30;99.90;;;;;;5089440;28;20071;-80
2023/09/07 07:41:46;;;;;;;5.65;5.05;;;21.40;99.90;;;;;;5089893;28;20048;-81
2023/09/07 07:44:11;;;;;;;5.28;4.70;;;21.50;99.90;;;;;;5073303;28;20052;-80
2023/09/07 07:46:37;;;;;;;5.90;4.40;;;21.60;99.90;;;;;;5086039;28;20063;-79
2023/09/07 07:49:03;;;;;;;9.25;5.22;;;21.70;99.90;;;;;;5070671;28;20052;-80
2023/09/07 07:51:28;;;;;;;6.35;4.50;;;21.80;99.90;;;;;;5072848;28;20049;-80
2023/09/07 07:53:56;;;;;;;7.07;4.80;;;22.00;99.90;;;;;;5080355;28;20051;-80
2023/09/07 07:56:24;;;;;;;5.20;4.70;;;22.10;99.90;;;;;;5069861;28;20076;-80
2023/09/07 07:58:50;;;;;;;7.43;4.60;;;22.20;99.90;;;;;;5083372;28;20093;-80
2023/09/07 08:01:20;;;;;;;6.10;4.72;;;22.40;99.90;;;;;;5086709;28;20040;-80
2023/09/07 08:03:46;;;;;;;5.18;4.68;;;22.50;99.90;;;;;;5088791;28;20456;-80
2023/09/07 08:06:11;;;;;;;6.53;4.95;;;22.50;99.90;;;;;;5098028;28;20036;-80
2023/09/07 08:08:39;;;;;;;6.72;4.22;;;22.70;99.90;;;;;;5091081;28;20040;-80
2023/09/07 08:11:05;;;;;;;4.80;4.40;;;22.80;99.90;;;;;;5079271;28;20445;-80
2023/09/07 08:13:33;;;;;;;5.85;4.63;;;22.90;99.90;;;;;;5088849;28;20047;-80
2023/09/07 08:16:03;;;;;;;4.72;4.28;;;22.80;99.90;;;;;;5090446;28;20403;-80
2023/09/07 08:18:28;;;;;;;5.70;4.30;;;23.00;99.90;;;;;;5079150;28;20048;-80
2023/09/07 08:20:55;;;;;;;5.15;4.65;;;23.20;99.90;;;;;;5074341;28;20167;-80
2023/09/07 08:23:23;;;;;;;7.40;4.85;;;23.30;99.90;;;;;;5070292;28;20517;-80
2023/09/07 08:25:48;;;;;;;6.40;4.45;;;23.40;99.90;;;;;;5069713;28;20049;-81
2023/09/07 08:28:15;;;;;;;5.55;4.05;;;23.50;99.90;;;;;;5080944;28;20059;-81
2023/09/07 08:30:41;;;;;;;5.00;4.15;;;23.60;99.90;;;;;;5075061;28;20070;-80
2023/09/07 08:33:08;;;;;;;5.75;4.53;;;23.60;99.90;;;;;;5069036;28;20064;-80
2023/09/07 08:35:35;;;;;;;6.60;3.88;;;23.80;99.90;;;;;;5069938;28;20491;-81
2023/09/07 08:38:04;;;;;;;5.13;4.03;;;23.90;99.90;;;;;;5069676;28;20602;-81
2023/09/07 08:40:32;;;;;;;4.97;3.92;;;24.00;99.90;;;;;;5072167;28;20046;-80
2023/09/07 08:43:01;;;;;;;4.93;3.63;;;24.00;99.90;;;;;;5088688;28;20079;-81
2023/09/07 08:45:33;;;;;;;4.28;3.55;;;24.10;99.90;;;;;;5090252;28;20502;-80
2023/09/07 08:47:59;;;;;;;4.45;3.90;;;24.30;99.90;;;;;;5083225;28;20056;-80
2023/09/07 08:50:25;;;;;;;4.55;4.07;;;24.30;99.90;;;;;;5069354;28;20415;-80
2023/09/07 08:52:54;;;;;;;6.22;3.78;;;24.30;99.90;;;;;;5069427;28;20044;-80
2023/09/07 08:55:21;;;;;;;5.60;4.20;;;24.50;99.90;;;;;;5069384;28;20041;-80
2023/09/07 08:57:47;;;;;;;4.72;3.63;;;24.60;99.90;;;;;;5069526;28;20458;-81
2023/09/07 09:00:16;;;;;;;4.72;3.83;;;24.60;99.90;;;;;;5071716;28;20048;-81
2023/09/07 09:02:42;;;;;;;4.50;3.72;;;24.70;99.70;;;;;;5069294;28;20067;-81
2023/09/07 09:05:14;;;;;;;5.82;4.18;;;24.70;99.50;;;;;;5069959;28;20806;-81
2023/09/07 09:07:39;;;;;;;5.70;4.28;;;24.80;99.20;;;;;;5069549;28;20486;-81
2023/09/07 09:10:06;;;;;;;6.10;3.70;;;24.90;99.40;;;;;;5068032;28;20049;-81
2023/09/07 09:12:32;;;;;;;4.78;4.18;;;25.00;99.40;;;;;;5069191;28;20044;-81
2023/09/07 09:15:00;;;;;;;4.72;3.83;;;25.10;99.70;;;;;;5070436;28;20114;-81
2023/09/07 09:17:26;;;;;;;5.35;4.45;;;25.20;99.40;;;;;;5068307;28;20145;-81
2023/09/07 09:19:51;;;;;;;5.47;4.40;;;25.30;98.70;;;;;;5069657;28;20041;-82
2023/09/07 09:22:17;;;;;;;5.75;3.72;;;25.40;97.80;;;;;;5077181;28;20040;-82
2023/09/07 09:24:43;;;;;;;6.47;3.90;;;25.50;97.40;;;;;;5088925;28;20044;-82
2023/09/07 09:27:08;;;;;;;6.65;4.35;;;25.40;96.80;;;;;;5088951;28;20051;-79
2023/09/07 09:29:35;;;;;;;5.60;4.15;;;25.50;96.00;;;;;;5085230;28;20051;-79
2023/09/07 09:32:06;;;;;;;4.10;3.75;;;25.50;95.80;;;;;;5072592;28;20045;-79
2023/09/07 09:34:34;;;;;;;5.10;3.78;;;25.60;95.90;;;;;;5078330;28;20040;-79
2023/09/07 09:37:00;;;;;;;5.70;4.45;;;25.60;95.40;;;;;;5080521;28;20052;-80
2023/09/07 09:39:25;;;;;;;4.70;3.90;;;25.70;95.20;;;;;;5073610;28;20083;-80
2023/09/07 09:41:52;;;;;;;4.57;4.07;;;25.80;94.90;;;;;;5050312;28;20109;-80
2023/09/07 09:44:21;;;;;;;4.32;3.92;;;25.90;94.60;;;;;;5069053;28;20068;-80
2023/09/07 09:46:47;;;;;;;4.55;4.03;;;26.00;93.70;;;;;;5067789;28;20079;-81
2023/09/07 09:49:13;;;;;;;5.63;4.00;;;26.00;93.60;;;;;;5069314;28;20076;-81
2023/09/07 09:51:40;;;;;;;4.63;4.13;;;26.10;93.80;;;;;;5084614;28;20060;-80
2023/09/07 09:54:08;;;;;;;5.07;4.05;;;26.20;93.80;;;;;;5078424;28;20044;-81
2023/09/07 09:56:34;;;;;;;4.93;3.92;;;26.30;93.50;;;;;;5070487;28;20040;-80
2023/09/07 09:58:59;;;;;;;4.05;3.67;;;26.40;93.50;;;;;;5070482;28;20048;-81
2023/09/07 10:01:25;;;;;;;6.55;4.55;;;26.50;92.80;;;;;;5084878;28;20048;-81
2023/09/07 10:03:53;;;;;;;4.95;4.30;;;26.50;92.00;;;;;;5085019;28;20051;-81
2023/09/07 10:06:23;;;;;;;4.22;3.70;;;26.60;91.40;;;;;;5088460;28;20051;-81
2023/09/07 10:09:04;;;;;;;4.35;3.65;;;26.70;91.30;;;;;;5087172;28;20051;-81
2023/09/07 10:11:37;;;;;;;4.20;3.77;;;26.70;91.20;;;;;;5082757;28;20093;-81
2023/09/07 10:14:03;;;;;;;4.43;3.90;;;26.80;91.20;;;;;;5074633;28;20330;-81
2023/09/07 10:16:40;;;;;;;7.88;4.32;;;26.90;90.60;;;;;;5075476;28;20036;-81
2023/09/07 10:19:17;;;;;;;4.70;4.00;;;26.90;90.70;;;;;;5074389;28;20518;-81
2023/09/07 10:21:43;;;;;;;6.53;4.00;;;27.10;90.40;;;;;;5084502;28;20044;-81
2023/09/07 10:24:09;;;;;;;6.38;4.30;;;27.20;89.80;;;;;;5075088;28;20123;-81
2023/09/07 10:26:34;;;;;;;7.32;4.03;;;27.20;88.50;;;;;;5068182;28;20120;-81
2023/09/07 10:29:03;;;;;;;4.70;3.65;;;27.20;87.60;;;;;;5067232;28;20054;-82
2023/09/07 10:31:30;;;;;;;5.03;3.80;;;27.30;87.20;;;;;;5068014;28;20083;-81
2023/09/07 10:33:56;;;;;;;4.55;3.90;;;27.30;86.50;;;;;;5074756;28;20507;-81
2023/09/07 10:36:26;;;;;;;4.95;3.83;;;27.20;86.50;;;;;;5087736;28;20208;-81
2023/09/07 10:38:53;;;;;;;5.13;3.80;;;27.40;86.60;;;;;;5070291;28;20469;-82
2023/09/07 10:41:20;;;;;;;5.45;4.07;;;27.50;85.80;;;;;;5068040;28;20044;-82
2023/09/07 10:43:50;;;;;;;3.92;3.35;;;27.50;84.60;;;;;;5066831;28;20073;-82
2023/09/07 10:46:20;;;;;;;4.55;4.15;;;27.60;84.60;;;;;;5068081;28;20040;-82
2023/09/07 10:48:50;;;;;;;6.45;3.75;;;27.70;84.60;;;;;;5071140;28;20478;-80
2023/09/07 10:51:15;;;;;;;6.60;3.80;;;27.60;84.00;;;;;;5076483;28;20052;-81
2023/09/07 10:53:41;;;;;;;3.90;3.60;;;27.70;84.50;;;;;;5071226;28;20596;-82
2023/09/07 10:56:07;;;;;;;4.47;4.07;;;27.70;83.90;;;;;;5073081;28;20054;-81
2023/09/07 10:58:35;;;;;;;4.70;4.20;;;27.90;83.80;;;;;;5074129;28;20082;-81
2023/09/07 11:01:04;;;;;;;4.30;3.90;;;27.90;83.50;;;;;;5074357;28;20048;-81
2023/09/07 11:03:30;;;;;;;5.72;4.03;;;28.00;83.60;;;;;;5074109;28;20502;-80
2023/09/07 11:06:04;;;;;;;7.40;4.30;;;28.10;83.70;;;;;;5073901;28;20037;-81
2023/09/07 11:08:30;;;;;;;6.80;3.90;;;28.10;82.80;;;;;;5074931;28;20055;-81
2023/09/07 11:10:56;;;;;;;7.53;3.85;;;28.10;82.50;;;;;;5074309;28;20044;-81
2023/09/07 11:13:24;;;;;;;6.15;4.07;;;28.20;81.90;;;;;;5074069;28;20162;-81
2023/09/07 11:15:53;;;;;;;4.97;3.92;;;28.20;81.10;;;;;;5074228;28;20036;-81
2023/09/07 11:18:22;;;;;;;4.30;3.90;;;28.20;80.90;;;;;;5073611;28;20509;-82
2023/09/07 11:20:49;;;;;;;5.72;4.13;;;28.20;80.10;;;;;;5073570;28;20044;-82
2023/09/07 11:23:20;;;;;;;5.32;4.30;;;28.30;79.30;;;;;;5079931;28;20391;-82
2023/09/07 11:25:47;;;;;;;4.68;3.80;;;28.30;79.20;;;;;;5078483;28;20126;-81
2023/09/07 11:28:15;;;;;;;4.88;3.88;;;28.20;78.20;;;;;;5073009;28;20044;-82
2023/09/07 11:30:51;;;;;;;5.20;3.70;;;28.30;77.10;;;;;;5072420;28;20060;-81
2023/09/07 11:33:16;;;;;;;4.30;3.72;;;28.40;75.90;;;;;;5073431;28;20486;-82
2023/09/07 11:35:42;;;;;;;5.57;3.88;;;28.40;76.50;;;;;;5072742;28;20055;-82
2023/09/07 11:38:10;;;;;;;6.47;3.70;;;28.50;75.90;;;;;;5074165;28;20052;-82
2023/09/07 11:40:36;;;;;;;5.82;4.00;;;28.50;75.30;;;;;;5073478;28;20053;-82
2023/09/07 11:43:02;;;;;;;4.13;3.83;;;28.60;75.70;;;;;;5073950;28;20043;-83
2023/09/07 11:45:28;;;;;;;5.05;3.92;;;28.60;75.50;;;;;;5074994;28;20048;-82
2023/09/07 11:47:53;;;;;;;4.45;3.88;;;28.60;75.30;;;;;;5055615;28;20049;-81
2023/09/07 11:50:20;;;;;;;7.97;3.90;;;28.50;74.60;;;;;;5073370;28;20171;-81
2023/09/07 11:52:46;;;;;;;3.70;3.40;;;28.70;74.60;;;;;;5072803;28;20127;-82
2023/09/07 11:55:13;;;;;;;4.00;3.60;;;28.60;74.60;;;;;;5055592;28;20139;-81
2023/09/07 11:57:40;;;;;;;4.00;3.60;;;28.80;74.30;;;;;;5072485;28;20056;-81
2023/09/07 12:00:10;;;;;;;4.55;3.70;;;28.80;74.10;;;;;;5073635;28;20135;-81
2023/09/07 12:02:39;;;;;;;4.38;3.78;;;28.80;74.40;;;;;;5085358;28;20052;-81
2023/09/07 12:05:07;;;;;;;6.65;3.70;;;28.80;74.60;;;;;;5091932;28;20077;-82
2023/09/07 12:07:33;;;;;;;6.05;3.85;;;28.90;74.20;;;;;;5090591;28;20048;-82
2023/09/07 12:09:59;;;;;;;5.57;3.80;;;29.00;74.40;;;;;;5090376;28;20048;-81
2023/09/07 12:12:24;;;;;;;4.38;3.97;;;29.10;73.30;;;;;;5090779;28;21044;-81
2023/09/07 12:14:50;;;;;;;5.03;3.80;;;29.00;72.40;;;;;;5090662;28;20047;-82
2023/09/07 12:17:16;;;;;;;4.43;3.72;;;29.00;71.80;;;;;;5080909;28;20048;-81
2023/09/07 12:19:42;;;;;;;5.03;3.60;;;29.00;71.80;;;;;;5069878;28;20036;-82
2023/09/07 12:22:08;;;;;;;5.63;4.00;;;29.10;70.80;;;;;;5070631;28;20048;-81
2023/09/07 12:24:33;;;;;;;4.10;3.70;;;29.00;68.70;;;;;;5068894;28;20036;-80
2023/09/07 12:26:59;;;;;;;3.63;3.33;;;29.00;68.00;;;;;;5069673;28;20501;-81
2023/09/07 12:29:25;;;;;;;4.45;3.60;;;29.10;68.30;;;;;;5085592;28;20036;-82
2023/09/07 12:31:51;;;;;;;4.82;3.83;;;29.10;67.60;;;;;;5079441;28;20056;-81
2023/09/07 12:34:16;;;;;;;7.57;4.07;;;29.10;67.20;;;;;;5069588;28;20052;-80
2023/09/07 12:36:42;;;;;;;7.90;3.70;;;29.10;66.50;;;;;;5081580;28;20096;-81
2023/09/07 12:39:07;;;;;;;4.60;3.38;;;29.10;67.30;;;;;;5090743;28;20051;-81
2023/09/07 12:41:33;;;;;;;5.80;3.95;;;29.20;66.90;;;;;;5090706;28;20070;-81